Main page
METAR-TAF:

METAR-TAF

Airports :

Noi Bai International Airport

Hanoi, Vietnam

latitude: 21-01N, longitude: 105-48E, elevation: 6 m

Current weather observation

The report was made 28 minutes ago, at 10:00 UTC
Wind 2 kt from variable directions
Temperature 23°C
Humidity 69%
Pressure 1017 hPa
Visibility 10 km or more
Broken clouds at a height of 4500 ft

METAR: VVNB 141000Z VRB02KT 9999 BKN045 23/17 Q1017 NOSIG

Time: 17:28 (10:28 UTC)

Forecast

The report was made 5 hours and 28 minutes ago, at 05:00 UTC
Forecast valid from 14 at 06 UTC to 15 at 06 UTC
Wind 6 kt from the North
Visibility 10 km or more
Scattered clouds at a height of 2500 ft

TAF: VVNB 140500Z 1406/1506 01006KT 9999 SCT025

Weather observations and forecasts of more than 4000 airports (METAR and TAF reports).

The available stations are represented by yellow and red dots on the map.

Hover mouse over dot to see the name of the station.

Then click to see weather observations and forecasts.

To change the map : click on the green buttons with a black cross to zoom in, on the green button with a dash to zoom out, or on the green arrows for adjacent maps.


METAR-TAF: